createdAt,value
2023-05-19T00:01:44.948Z,5.57
2023-05-19T00:04:47.242Z,3.28
2023-05-19T00:07:51.425Z,4.82
2023-05-19T00:10:53.571Z,5.47
2023-05-19T00:13:56.408Z,6.15
2023-05-19T00:17:00.061Z,5.25
2023-05-19T00:20:01.922Z,4.93
2023-05-19T00:23:03.621Z,5.00
2023-05-19T00:26:05.356Z,5.63
2023-05-19T00:29:07.121Z,6.25
2023-05-19T00:32:10.215Z,3.85
2023-05-19T00:35:12.357Z,6.70
2023-05-19T00:38:14.062Z,4.38
2023-05-19T00:41:15.793Z,4.45
2023-05-19T00:44:19.737Z,5.40
2023-05-19T00:47:22.773Z,5.72
2023-05-19T00:50:24.470Z,5.95
2023-05-19T00:53:26.180Z,6.10
2023-05-19T00:56:28.240Z,5.63
2023-05-19T00:59:30.232Z,5.57
2023-05-19T01:02:33.458Z,4.63
2023-05-19T01:05:35.933Z,9.63
2023-05-19T01:08:38.466Z,5.60
2023-05-19T01:11:40.153Z,6.65
2023-05-19T01:14:42.424Z,5.65
2023-05-19T01:17:53.448Z,5.90
2023-05-19T01:21:23.247Z,5.18
2023-05-19T01:24:45.213Z,6.72
2023-05-19T01:28:10.320Z,5.55
2023-05-19T01:31:15.406Z,7.70
2023-05-19T01:34:19.533Z,5.47
2023-05-19T01:37:21.652Z,7.32
2023-05-19T01:40:24.648Z,5.80
2023-05-19T01:43:27.332Z,7.13
2023-05-19T01:46:30.434Z,5.70
2023-05-19T01:49:32.124Z,5.10
2023-05-19T01:52:33.950Z,5.18
2023-05-19T01:55:36.762Z,6.25
2023-05-19T01:58:45.159Z,6.43
2023-05-19T02:01:53.279Z,7.40
2023-05-19T02:05:00.005Z,6.00
2023-05-19T02:08:11.441Z,4.60
2023-05-19T02:11:19.586Z,7.97
2023-05-19T02:14:29.019Z,7.03
2023-05-19T02:17:35.939Z,5.70
2023-05-19T02:20:37.794Z,5.53
2023-05-19T02:23:39.911Z,7.47
2023-05-19T02:26:41.543Z,6.88
2023-05-19T02:29:43.255Z,4.68
2023-05-19T02:32:46.347Z,6.13
2023-05-19T02:35:48.009Z,8.23
2023-05-19T02:38:49.697Z,8.93
2023-05-19T02:41:51.618Z,6.55
2023-05-19T02:44:54.735Z,6.15
2023-05-19T02:47:59.175Z,6.28
2023-05-19T02:51:00.820Z,8.23
2023-05-19T02:54:02.507Z,5.22
2023-05-19T02:57:04.594Z,6.00
2023-05-19T03:00:07.719Z,5.68
2023-05-19T03:03:10.905Z,5.55
2023-05-19T03:06:12.988Z,5.40
2023-05-19T03:09:14.660Z,5.07
2023-05-19T03:12:16.333Z,6.85
2023-05-19T03:15:18.011Z,7.90
2023-05-19T03:18:21.039Z,7.35
2023-05-19T03:21:23.107Z,5.82
2023-05-19T03:24:29.710Z,6.32
2023-05-19T03:27:31.368Z,7.13
2023-05-19T03:30:33.293Z,6.28
2023-05-19T03:33:36.870Z,6.13
2023-05-19T03:36:38.603Z,7.57
2023-05-19T03:39:40.309Z,4.80
2023-05-19T03:42:41.940Z,7.18
2023-05-19T03:45:43.705Z,7.28
2023-05-19T03:48:46.727Z,6.40
2023-05-19T03:51:48.380Z,8.15
2023-05-19T03:54:50.056Z,7.13
2023-05-19T03:57:51.786Z,6.35
2023-05-19T04:00:53.436Z,5.63
2023-05-19T04:03:56.586Z,6.05
2023-05-19T04:06:58.374Z,5.60
2023-05-19T04:10:00.261Z,6.07
2023-05-19T04:13:02.260Z,5.55
2023-05-19T04:16:04.583Z,5.15
2023-05-19T04:19:07.975Z,6.03
2023-05-19T04:22:09.621Z,9.18
2023-05-19T04:25:11.233Z,8.48
2023-05-19T04:28:12.908Z,4.95
2023-05-19T04:31:14.886Z,4.47
2023-05-19T04:34:17.988Z,5.15
2023-05-19T04:37:19.822Z,7.10
2023-05-19T04:40:21.567Z,6.53
2023-05-19T04:43:23.219Z,6.95
2023-05-19T04:46:24.906Z,6.00
2023-05-19T04:49:27.970Z,5.20
2023-05-19T04:52:29.697Z,4.75
2023-05-19T04:55:31.437Z,8.07
2023-05-19T04:58:33.150Z,4.90
2023-05-19T05:01:34.864Z,6.07
2023-05-19T05:04:38.165Z,6.72
2023-05-19T05:07:39.841Z,5.53
2023-05-19T05:10:41.671Z,7.00
2023-05-19T05:13:44.060Z,5.47
2023-05-19T05:16:46.462Z,6.32
2023-05-19T05:19:50.348Z,5.78
2023-05-19T05:22:52.509Z,8.45
2023-05-19T05:25:54.683Z,7.18
2023-05-19T05:28:56.391Z,7.20
2023-05-19T05:31:58.349Z,7.53
2023-05-19T05:35:01.552Z,7.93
2023-05-19T05:38:03.744Z,7.70
2023-05-19T05:41:05.480Z,10.55
2023-05-19T05:44:07.531Z,8.75
2023-05-19T05:47:09.962Z,7.82
2023-05-19T05:50:14.341Z,9.07
2023-05-19T05:53:19.086Z,6.72
2023-05-19T05:56:21.693Z,7.78
2023-05-19T05:59:23.406Z,8.98
2023-05-19T06:02:25.527Z,8.52
2023-05-19T06:05:28.976Z,7.88
2023-05-19T06:08:30.701Z,7.72
2023-05-19T06:11:32.723Z,7.88
2023-05-19T06:14:34.631Z,7.78
2023-05-19T06:17:36.609Z,9.45
2023-05-19T06:20:39.730Z,8.45
2023-05-19T06:23:41.434Z,7.00
2023-05-19T06:26:43.180Z,11.15
2023-05-19T06:29:44.893Z,9.57
2023-05-19T06:32:46.598Z,6.47
2023-05-19T06:35:49.701Z,7.32
2023-05-19T06:38:51.436Z,6.63
2023-05-19T06:41:53.399Z,7.60
2023-05-19T06:44:55.820Z,9.68
2023-05-19T06:47:57.600Z,7.82
2023-05-19T06:51:00.691Z,6.63
2023-05-19T06:54:02.421Z,7.65
2023-05-19T06:57:04.321Z,7.68
2023-05-19T07:00:07.727Z,6.60
2023-05-19T07:09:14.276Z,7.05
2023-05-19T07:12:16.428Z,6.13
2023-05-19T07:15:18.326Z,6.47
2023-05-19T07:18:20.039Z,8.68
2023-05-19T07:21:23.387Z,9.30
2023-05-19T07:27:26.728Z,7.20
2023-05-19T07:30:28.928Z,6.97
2023-05-19T07:33:30.834Z,7.45
2023-05-19T07:36:33.860Z,7.30
2023-05-19T07:39:36.223Z,6.88
2023-05-19T07:42:37.890Z,8.27
2023-05-19T07:45:39.909Z,7.68
2023-05-19T07:48:41.580Z,7.45
2023-05-19T07:51:44.632Z,7.57
2023-05-19T07:54:46.591Z,8.18
2023-05-19T07:57:48.342Z,9.43
2023-05-19T08:00:50.006Z,9.45
2023-05-19T08:03:51.697Z,8.68
2023-05-19T08:06:54.764Z,9.32
2023-05-19T08:09:56.418Z,6.85
2023-05-19T08:12:58.218Z,7.18
2023-05-19T08:16:00.353Z,9.30
2023-05-19T08:19:02.200Z,12.13
2023-05-19T08:22:05.316Z,9.75
2023-05-19T08:25:07.246Z,9.45
2023-05-19T08:28:09.058Z,10.18
2023-05-19T08:31:10.959Z,10.10
2023-05-19T08:34:12.700Z,9.65
2023-05-19T08:37:15.806Z,10.13
2023-05-19T08:40:18.521Z,8.32
2023-05-19T08:43:20.498Z,9.88
2023-05-19T08:46:24.936Z,11.30
2023-05-19T08:49:27.715Z,10.60
2023-05-19T08:52:35.642Z,9.23
2023-05-19T08:55:43.988Z,8.57
2023-05-19T08:58:47.214Z,8.25
2023-05-19T09:07:53.596Z,6.60
2023-05-19T09:10:55.742Z,8.02
2023-05-19T09:13:57.733Z,6.30
2023-05-19T09:16:59.546Z,12.40
2023-05-19T09:20:01.746Z,10.18
2023-05-19T09:23:05.653Z,7.05
2023-05-19T09:26:07.691Z,8.90
2023-05-19T09:29:13.825Z,9.20
2023-05-19T09:32:24.855Z,8.80
2023-05-19T09:35:26.718Z,7.63
2023-05-19T09:38:29.828Z,7.80
2023-05-19T09:41:31.614Z,7.30
2023-05-19T09:44:35.310Z,6.57
2023-05-19T09:47:37.695Z,5.78
2023-05-19T09:50:39.865Z,5.68
2023-05-19T09:53:46.883Z,6.50
2023-05-19T09:56:52.188Z,9.73
2023-05-19T09:59:55.560Z,9.50
2023-05-19T10:02:58.525Z,7.07
2023-05-19T10:06:01.156Z,5.95
2023-05-19T10:09:04.381Z,5.95
2023-05-19T10:15:10.850Z,6.78
2023-05-19T10:18:15.819Z,6.13
2023-05-19T10:21:18.302Z,5.43
2023-05-19T10:24:21.753Z,6.50
2023-05-19T10:27:23.738Z,6.28
2023-05-19T10:30:29.326Z,7.13
2023-05-19T10:33:47.198Z,5.50
2023-05-19T10:39:59.987Z,6.72
2023-05-19T10:43:18.067Z,6.00
2023-05-19T10:46:24.025Z,5.10
2023-05-19T10:49:26.289Z,5.47
2023-05-19T10:52:30.096Z,6.97
2023-05-19T10:55:51.031Z,5.78
2023-05-19T10:58:52.664Z,6.65
2023-05-19T11:01:54.354Z,5.13
2023-05-19T11:05:07.490Z,5.43
2023-05-19T11:08:09.356Z,4.28
2023-05-19T11:11:17.462Z,5.30
2023-05-19T11:14:21.301Z,5.82
2023-05-19T11:17:25.191Z,5.65
2023-05-19T11:20:28.846Z,6.82
2023-05-19T11:23:35.440Z,4.78
2023-05-19T11:26:42.408Z,5.57
2023-05-19T11:29:44.171Z,5.25
2023-05-19T11:32:48.200Z,4.28
2023-05-19T11:35:51.030Z,3.92
2023-05-19T11:38:53.253Z,3.97
2023-05-19T11:41:56.934Z,6.57
2023-05-19T11:44:58.866Z,3.78
2023-05-19T11:48:03.014Z,3.95
2023-05-19T11:51:06.679Z,4.72
2023-05-19T11:54:08.395Z,3.65
2023-05-19T11:57:11.384Z,8.75
2023-05-19T12:00:13.936Z,5.53
2023-05-19T12:03:16.197Z,6.72
2023-05-19T12:06:18.116Z,4.32
2023-05-19T12:09:23.013Z,4.30
2023-05-19T12:12:26.040Z,4.53
2023-05-19T12:18:30.354Z,5.13
2023-05-19T12:21:34.031Z,4.43
2023-05-19T12:24:37.657Z,3.58
2023-05-19T12:27:43.293Z,4.03
2023-05-19T12:30:48.043Z,4.57
2023-05-19T12:33:50.204Z,3.97
2023-05-19T12:36:51.872Z,6.05
2023-05-19T12:39:55.455Z,4.32
2023-05-19T12:42:58.471Z,4.60
2023-05-19T12:49:10.653Z,3.65
2023-05-19T12:52:13.720Z,3.80
2023-05-19T12:55:15.594Z,3.42
2023-05-19T12:58:19.132Z,3.80
2023-05-19T13:01:22.501Z,5.10
2023-05-19T13:04:24.499Z,3.83
2023-05-19T13:07:26.251Z,3.65
2023-05-19T13:10:28.772Z,5.50
2023-05-19T13:13:31.806Z,6.07
2023-05-19T13:19:35.405Z,4.38
2023-05-19T13:22:37.106Z,6.00
2023-05-19T13:25:39.354Z,3.90
2023-05-19T13:28:42.354Z,4.93
2023-05-19T13:34:45.618Z,4.97
2023-05-19T13:37:47.317Z,5.75
2023-05-19T13:40:49.001Z,3.88
2023-05-19T13:43:52.147Z,4.85
2023-05-19T13:46:54.073Z,4.95
2023-05-19T13:49:55.927Z,5.05
2023-05-19T13:52:57.870Z,4.38
2023-05-19T13:56:00.757Z,15.25
2023-05-19T13:59:03.952Z,3.80
2023-05-19T14:02:06.426Z,4.95
2023-05-19T14:05:08.720Z,4.80
2023-05-19T14:08:10.394Z,4.35
2023-05-19T14:11:17.857Z,6.65
2023-05-19T14:14:21.240Z,6.18
2023-05-19T14:17:23.029Z,4.95
2023-05-19T14:20:25.878Z,6.38
2023-05-19T14:23:28.724Z,5.75
2023-05-19T14:26:30.411Z,6.45
2023-05-19T14:29:33.588Z,7.78
2023-05-19T14:32:35.526Z,5.55
2023-05-19T14:35:37.315Z,5.25
2023-05-19T14:38:38.977Z,5.25
2023-05-19T14:41:40.690Z,4.47
2023-05-19T14:44:44.011Z,4.15
2023-05-19T14:47:47.096Z,6.35
2023-05-19T14:50:49.555Z,5.68
2023-05-19T14:53:51.465Z,5.88
2023-05-19T14:56:53.130Z,5.00
2023-05-19T14:59:56.168Z,5.97
2023-05-19T15:02:57.902Z,6.53
2023-05-19T15:05:59.836Z,6.70
2023-05-19T15:09:01.702Z,5.40
2023-05-19T15:12:03.784Z,4.85
2023-05-19T15:15:08.422Z,5.15
2023-05-19T15:18:10.162Z,5.15
2023-05-19T15:21:12.088Z,5.50
2023-05-19T15:24:16.008Z,7.22
2023-05-19T15:27:18.010Z,5.93
2023-05-19T15:30:21.185Z,5.32
2023-05-19T15:33:22.826Z,6.53
2023-05-19T15:36:24.719Z,5.13
2023-05-19T15:39:26.335Z,4.38
2023-05-19T15:42:28.249Z,8.77
2023-05-19T15:45:31.537Z,6.50
2023-05-19T15:48:33.272Z,5.55
2023-05-19T15:51:35.100Z,6.90
2023-05-19T15:54:36.737Z,6.45
2023-05-19T15:57:38.409Z,5.13
2023-05-19T16:00:41.967Z,4.28
2023-05-19T16:03:44.434Z,5.85
2023-05-19T16:06:46.400Z,6.70
2023-05-19T16:09:48.034Z,7.97
2023-05-19T16:12:49.759Z,5.93
2023-05-19T16:15:52.966Z,4.70
2023-05-19T16:18:54.702Z,4.95
2023-05-19T16:21:56.374Z,5.45
2023-05-19T16:24:58.274Z,5.05
2023-05-19T16:27:59.976Z,5.05
2023-05-19T16:31:03.036Z,4.30
2023-05-19T16:34:04.726Z,5.80
2023-05-19T16:37:06.442Z,4.57
2023-05-19T16:40:09.017Z,5.18
2023-05-19T16:43:10.903Z,7.68
2023-05-19T16:46:13.943Z,5.18
2023-05-19T16:52:17.127Z,5.43
2023-05-19T16:55:21.917Z,6.95
2023-05-19T16:58:23.606Z,5.75
2023-05-19T17:01:26.770Z,5.93
2023-05-19T17:04:30.654Z,6.30
2023-05-19T17:07:32.531Z,6.13
2023-05-19T17:10:34.548Z,6.03
2023-05-19T17:13:36.554Z,5.55
2023-05-19T17:16:39.941Z,5.63
2023-05-19T17:19:41.606Z,6.55
2023-05-19T17:22:43.698Z,5.13
2023-05-19T17:25:45.473Z,4.82
2023-05-19T17:28:47.181Z,7.40
2023-05-19T17:31:50.271Z,7.18
2023-05-19T17:40:57.668Z,5.10
2023-05-19T17:43:59.578Z,5.40
2023-05-19T17:47:02.830Z,6.65
2023-05-19T17:50:05.357Z,7.68
2023-05-19T17:53:07.547Z,6.35
2023-05-19T17:56:11.733Z,5.47
2023-05-19T17:59:13.692Z,6.32
2023-05-19T18:02:18.373Z,6.82
2023-05-19T18:05:21.295Z,9.13
2023-05-19T18:08:23.598Z,5.60
2023-05-19T18:11:25.805Z,8.48
2023-05-19T18:14:28.608Z,8.38
2023-05-19T18:17:31.780Z,10.57
2023-05-19T18:20:34.454Z,8.65
2023-05-19T18:23:36.402Z,11.55
2023-05-19T18:26:38.178Z,9.40
2023-05-19T18:29:39.924Z,8.50
2023-05-19T18:32:43.269Z,14.23
2023-05-19T18:35:46.314Z,13.45
2023-05-19T18:38:48.428Z,10.35
2023-05-19T18:41:50.324Z,11.02
2023-05-19T18:44:52.038Z,10.23
2023-05-19T18:47:55.146Z,10.60
2023-05-19T18:50:56.847Z,9.80
2023-05-19T18:53:58.629Z,11.77
2023-05-19T18:57:00.736Z,14.00
2023-05-19T19:00:02.411Z,13.27
2023-05-19T19:03:05.787Z,16.83
2023-05-19T19:06:07.864Z,17.73
2023-05-19T19:09:09.764Z,17.38
2023-05-19T19:12:11.456Z,17.77
2023-05-19T19:15:13.243Z,17.70
2023-05-19T19:18:16.293Z,18.30
2023-05-19T19:21:17.972Z,14.88
2023-05-19T19:24:19.973Z,12.10
2023-05-19T19:27:22.352Z,15.40
2023-05-19T19:30:24.105Z,18.98
2023-05-19T19:33:27.193Z,18.17
2023-05-19T19:36:28.969Z,13.50
2023-05-19T19:39:31.131Z,12.45
2023-05-19T19:42:32.896Z,11.07
2023-05-19T19:45:34.903Z,11.85
2023-05-19T19:48:38.134Z,11.32
2023-05-19T19:54:41.442Z,15.43
2023-05-19T19:57:43.138Z,8.80
2023-05-19T20:00:45.062Z,11.10
2023-05-19T20:03:48.449Z,12.40
2023-05-19T20:06:50.480Z,12.38
2023-05-19T20:09:52.276Z,10.70
2023-05-19T20:12:53.941Z,12.18
2023-05-19T20:15:55.642Z,9.93
2023-05-19T20:18:59.071Z,10.32
2023-05-19T20:22:00.891Z,13.65
2023-05-19T20:25:02.526Z,11.60
2023-05-19T20:28:04.567Z,9.55
2023-05-19T20:31:06.529Z,9.73
2023-05-19T20:34:09.584Z,12.75
2023-05-19T20:37:11.542Z,34.58
2023-05-19T20:40:13.266Z,43.25
2023-05-19T20:43:15.184Z,46.85
2023-05-19T20:46:17.205Z,73.72
2023-05-19T20:49:20.369Z,77.20
2023-05-19T20:52:22.094Z,63.80
2023-05-19T20:55:23.757Z,58.30
2023-05-19T20:58:25.466Z,42.33
2023-05-19T21:01:27.269Z,20.08
2023-05-19T21:04:30.463Z,15.80
2023-05-19T21:13:35.492Z,22.48
2023-05-19T21:16:37.184Z,19.60
2023-05-19T21:19:40.215Z,16.38
2023-05-19T21:22:42.086Z,15.98
2023-05-19T21:25:45.417Z,13.57
2023-05-19T21:28:47.301Z,12.45
2023-05-19T21:31:49.176Z,11.35
2023-05-19T21:34:52.200Z,10.02
2023-05-19T21:37:53.887Z,11.73
2023-05-19T21:40:55.663Z,10.98
2023-05-19T21:43:57.308Z,11.10
2023-05-19T21:46:59.097Z,9.80
2023-05-19T21:50:02.371Z,12.88
2023-05-19T21:53:04.190Z,10.00
2023-05-19T21:56:06.004Z,8.38
2023-05-19T21:59:08.246Z,9.52
2023-05-19T22:02:09.993Z,10.48
2023-05-19T22:05:13.154Z,11.55
2023-05-19T22:08:15.187Z,10.13
2023-05-19T22:11:16.837Z,9.68
2023-05-19T22:14:18.568Z,11.80
2023-05-19T22:17:20.242Z,9.90
2023-05-19T22:20:23.305Z,10.82
2023-05-19T22:23:25.162Z,11.48
2023-05-19T22:26:26.863Z,11.57
2023-05-19T22:29:28.533Z,20.67
2023-05-19T22:32:30.471Z,16.17
2023-05-19T22:35:33.826Z,12.75
2023-05-19T22:38:35.767Z,13.25
2023-05-19T22:41:37.438Z,12.48
2023-05-19T22:44:39.324Z,10.35
2023-05-19T22:47:41.022Z,11.43
2023-05-19T22:50:44.091Z,10.63
2023-05-19T22:53:45.931Z,12.13
2023-05-19T22:56:47.866Z,10.90
2023-05-19T22:59:49.805Z,12.45
2023-05-19T23:02:51.622Z,13.10
2023-05-19T23:05:54.934Z,14.48
2023-05-19T23:12:02.451Z,15.73
2023-05-19T23:15:04.944Z,13.07
2023-05-19T23:18:06.868Z,10.82
2023-05-19T23:21:09.976Z,10.82
2023-05-19T23:24:11.921Z,13.27
2023-05-19T23:27:13.616Z,10.73
2023-05-19T23:30:15.329Z,13.27
2023-05-19T23:33:17.209Z,14.65
2023-05-19T23:36:20.240Z,15.57
2023-05-19T23:39:22.152Z,15.77
2023-05-19T23:42:23.794Z,13.45
2023-05-19T23:45:25.804Z,16.23
2023-05-19T23:48:28.326Z,15.23
2023-05-19T23:51:31.678Z,14.82
2023-05-19T23:54:33.623Z,12.98
2023-05-19T23:57:35.571Z,11.70
